Flight Track Log - Related Links

Times and Time Zones

All times are in EST time to prevent confusion due to time zone crossing. See the VP-BLX flight status page for this flight to view local times or setup timezone preferences in your user account.

Time Position Orientation Groundspeed Altitude Reporting Facility
EST Latitude Longitude Course Direction KTS MPH feet Rate Location/Type
Thu 07:34:58 PM 25.8006 -80.2606 87° East 170 196 1,200  Level Miami Center
Thu 07:36:03 PM 25.8042 -80.1917 87° East 217 250 2,700 1,455 Climbing Miami Center
Thu 07:36:04 PM 25.8019 -80.1961 241° Southwest 220 253 2,800 1,900 Climbing Miami Center
Thu 07:37:03 PM 25.8247 -80.1206 71° East 254 292 4,600 1,967 Climbing Miami Center
Thu 07:37:05 PM 25.8183 -80.1228 197° South 265 305 4,800 2,500 Climbing Miami Center
Thu 07:38:03 PM 25.8575 -80.0544 57° Northeast 269 310 7,100 2,288 Climbing Miami Center
Thu 07:39:03 PM 25.8967 -79.9794 60° Northeast 291 335 9,300 1,850 Climbing Miami Center
Thu 07:40:03 PM 25.9403 -79.8950 60° Northeast 291 335 10,800 1,500 Climbing Miami Center
Thu 07:41:03 PM 25.9922 -79.7992 59° Northeast 319 367 12,300 1,800 Climbing Miami Center
Thu 07:42:03 PM 26.0506 -79.7036 56° Northeast 352 405 14,400 1,950 Climbing Miami Center
Thu 07:43:03 PM 26.1131 -79.6033 55° Northeast 380 437 16,200 1,581 Climbing Miami Center
Thu 07:48:49 PM 26.7229 -79.2170 55° Northeast 457 526 25,100 1,493 Climbing FlightAware
Thu 07:49:57 PM 26.8502 -79.1535 24° Northeast 455 524 26,500 1,274 Climbing FlightAware
Thu 07:50:42 PM 26.9415 -79.1272 14° North 458 527 27,500 1,200 Climbing FlightAware
Thu 07:51:12 PM 27.0075 -79.1080 15° North 462 532 28,000 1,000 Climbing FlightAware
Thu 07:51:42 PM 27.0700 -79.0897 15° North 465 535 28,500 963 Climbing FlightAware
Thu 07:52:33 PM 27.1772 -79.0585 15° North 468 539 29,300 963 Climbing FlightAware
Thu 07:53:03 PM 27.2391 -79.0405 15° North 469 540 29,800 1,000 Climbing FlightAware
Thu 07:53:33 PM 27.3029 -79.0219 15° North 470 541 30,300 1,100 Climbing FlightAware
Thu 07:54:03 PM 27.3645 -79.0039 15° North 468 539 30,900 1,200 Climbing FlightAware
Thu 07:54:33 PM 27.4296 -78.9849 15° North 465 535 31,500 1,100 Climbing FlightAware
Thu 07:55:03 PM 27.4915 -78.9668 15° North 464 534 32,000 900 Climbing FlightAware
Thu 07:55:33 PM 27.5545 -78.9483 15° North 464 534 32,400 900 Climbing FlightAware
Thu 07:56:23 PM 27.6571 -78.9180 15° North 464 534 33,200 1,067 Climbing FlightAware
Thu 07:57:03 PM 27.7419 -78.8928 15° North 461 531 34,000 936 Climbing FlightAware
Thu 07:58:44 PM 27.9497 -78.8312 15° North 466 536 35,400 773 Climbing FlightAware
Thu 07:59:15 PM 28.0142 -78.8120 15° North 471 542 35,700 590 Climbing FlightAware
Thu 07:59:45 PM 28.0758 -78.7937 15° North 476 548 36,000 600 Climbing FlightAware
Thu 08:00:15 PM 28.1425 -78.7739 15° North 480 552 36,300 456 Climbing FlightAware
Thu 08:01:04 PM 28.2485 -78.7422 15° North 488 562 36,600 121 Climbing FlightAware
Thu 08:06:01 PM 28.9014 -78.5457 15° North 486 559 37,000 59 Climbing FlightAware
Thu 08:07:51 PM 29.1417 -78.4728 15° North 486 559 37,000  Level FlightAware
Thu 08:09:03 PM 29.2664 -78.4381 15° North 473 544 37,000  Level Miami Center
Thu 08:10:03 PM 29.4214 -78.3903 15° North 473 544 37,000  Level Miami Center
Thu 08:11:03 PM 29.5594 -78.3542 13° North 474 545 37,000  Level Miami Center
Thu 08:12:03 PM 29.6914 -78.3106 16° North 482 555 37,000  Level Miami Center
Thu 08:12:44 PM 29.7614 -78.2778 22° Northeast 486 559 37,000  Level Jacksonville Center
Thu 08:13:44 PM 29.9042 -78.2472 11° North 512 589 37,000  Level Jacksonville Center
Thu 08:14:44 PM 30.0319 -78.1978 19° North 504 580 37,000  Level Jacksonville Center
Thu 08:15:44 PM 30.1617 -78.1556 16° North 485 558 37,000  Level Jacksonville Center
Thu 08:16:44 PM 30.2942 -78.1200 13° North 479 551 37,000  Level Jacksonville Center
Thu 08:17:44 PM 30.4200 -78.0800 15° North 479 551 37,000  Level Jacksonville Center
Thu 08:18:44 PM 30.5519 -78.0372 16° North 485 558 37,000  Level Jacksonville Center
Thu 08:19:44 PM 30.6897 -77.9892 17° North 495 570 37,000  Level Jacksonville Center
Thu 08:20:44 PM 30.8258 -77.9458 15° North 495 570 37,000  Level Jacksonville Center
Thu 08:21:44 PM 30.9578 -77.9025 16° North 495 570 37,000  Level Jacksonville Center
Thu 08:22:44 PM 31.0919 -77.8617 15° North 490 564 37,000  Level Jacksonville Center
Thu 08:23:44 PM 31.2258 -77.8203 15° North 490 564 37,000  Level Jacksonville Center
Thu 08:24:44 PM 31.3622 -77.7814 14° North 490 564 37,000  Level Jacksonville Center
Thu 08:25:44 PM 31.4939 -77.7400 15° North 490 564 37,000  Level Jacksonville Center
Thu 08:26:44 PM 31.6297 -77.6886 18° North 490 564 37,000  Level Jacksonville Center
Thu 08:27:44 PM 31.7617 -77.6494 14° North 490 564 37,000  Level Jacksonville Center
Thu 08:28:44 PM 31.8975 -77.6050 16° North 490 564 37,000  Level Jacksonville Center
Thu 08:29:44 PM 32.0314 -77.5606 16° North 490 564 37,000  Level Jacksonville Center
Thu 08:30:44 PM 32.1672 -77.5183 15° North 490 564 37,000  Level Jacksonville Center
Thu 08:31:44 PM 32.3011 -77.4786 14° North 490 564 37,000  Level Jacksonville Center
Thu 08:32:44 PM 32.4350 -77.4311 17° North 490 564 37,000  Level Jacksonville Center
Thu 08:33:44 PM 32.5686 -77.3886 15° North 490 564 37,000  Level Jacksonville Center
Thu 08:34:44 PM 32.7003 -77.3461 15° North 490 564 37,000  Level Jacksonville Center
Thu 08:36:21 PM 32.9125 -77.2783 15° North 482 555 37,000  Level Washington Center
Thu 08:37:19 PM 33.0447 -77.2317 16° North 482 555 37,000  Level Washington Center
Thu 08:38:20 PM 33.1786 -77.1894 15° North 495 570 37,000  Level Washington Center
Thu 08:39:21 PM 33.3169 -77.1425 16° North 501 577 37,000  Level Washington Center
Thu 08:40:19 PM 33.4531 -77.0978 15° North 501 577 37,000  Level Washington Center
Thu 08:41:21 PM 33.5850 -77.0528 16° North 501 577 37,000  Level Washington Center
Thu 08:42:20 PM 33.7211 -77.0075 15° North 496 571 37,000  Level Washington Center
Thu 08:43:20 PM 33.8553 -76.9600 16° North 496 571 37,000  Level Washington Center
Thu 08:44:19 PM 33.9872 -76.9194 14° North 496 571 37,000  Level Washington Center
Thu 08:45:20 PM 34.1211 -76.8739 16° North 496 571 37,000  Level Washington Center
Thu 08:46:20 PM 34.2553 -76.8258 16° North 496 571 37,000  Level Washington Center
Thu 08:47:21 PM 34.3869 -76.7825 15° North 496 571 37,000  Level Washington Center
Thu 08:48:19 PM 34.5211 -76.7364 16° North 490 564 37,000  Level Washington Center
Thu 08:49:21 PM 34.6528 -76.6903 16° North 490 564 37,000  Level Washington Center
Thu 08:50:19 PM 34.7847 -76.6442 16° North 490 564 37,000  Level Washington Center
Thu 08:51:21 PM 34.9144 -76.6003 16° North 495 570 37,000  Level Washington Center
Thu 08:52:18 PM 35.0506 -76.5536 16° North 495 570 37,000  Level Washington Center
Thu 08:53:20 PM 35.1844 -76.5044 17° North 495 570 37,000  Level Washington Center
Thu 08:54:20 PM 35.3289 -76.4525 16° North 495 570 37,000  Level Washington Center
Thu 08:55:20 PM 35.4606 -76.4081 15° North 495 570 37,000  Level Washington Center
Thu 08:56:19 PM 35.5944 -76.3636 15° North 495 570 37,000  Level Washington Center
Thu 08:57:19 PM 35.7283 -76.3136 17° North 495 570 37,000  Level Washington Center
Thu 08:59:20 PM 36.0075 -76.2158 17° North 501 577 37,000  Level FlightAware (KWWD)
Thu 09:00:19 PM 36.1294 -76.1733 17° North 495 570 37,000  Level Washington Center
Thu 09:06:09 PM 36.9270 -75.8834 17° North 506 582 37,000  Level FlightAware (KWWD)
Thu 09:06:43 PM 37.0027 -75.8558 16° North 506 582 37,000  Level FlightAware (KWWD)
Thu 09:07:17 PM 37.0800 -75.8275 16° North 500 575 37,000  Level FlightAware (KWWD)
Thu 09:07:48 PM 37.1488 -75.8023 16° North 500 575 37,000  Level FlightAware (KWWD)
Thu 09:08:28 PM 37.2397 -75.7687 16° North 501 577 37,000  Level FlightAware (KWWD)
Thu 09:08:59 PM 37.3102 -75.7426 16° North 502 578 37,000  Level FlightAware (KWWD)
Thu 09:09:39 PM 37.3990 -75.7096 16° North 502 578 37,000  Level FlightAware (KWWD)
Thu 09:10:09 PM 37.4684 -75.6839 16° North 501 577 37,000  Level FlightAware (KWWD)
Thu 09:10:48 PM 37.5566 -75.6511 16° North 502 578 37,000  Level FlightAware (KWWD)
Thu 09:11:20 PM 37.6274 -75.6248 16° North 501 577 37,000  Level FlightAware (KWWD)
Thu 09:11:50 PM 37.6950 -75.5994 17° North 504 580 37,000  Level FlightAware (KWWD)
Thu 09:12:30 PM 37.7843 -75.5660 16° North 486 559 37,000  Level FlightAware (KWWD)
Thu 09:13:00 PM 37.8498 -75.5416 16° North 484 557 37,000  Level FlightAware (KWWD)
Thu 09:13:39 PM 37.9344 -75.5095 17° North 495 570 37,000  Level FlightAware (KWWD)
Thu 09:14:19 PM 38.0203 -75.4639 23° Northeast 504 580 37,000  Level FlightAware (KWWD)
Thu 09:14:49 PM 38.0809 -75.4222 28° Northeast 509 586 37,000  Level FlightAware (KWWD)
Thu 09:15:40 PM 38.1800 -75.3329 35° Northeast 518 596 37,000  Level FlightAware (KWWD)
Thu 09:15:59 PM 38.1929 -75.3191 40° Northeast 518 596 37,000  Level FlightAware (EGAA / BFS)
Thu 09:16:30 PM 38.2736 -75.2362 39° Northeast 520 598 37,000  Level FlightAware (KWWD)
Thu 09:17:00 PM 38.3285 -75.1792 39° Northeast 521 600 37,000  Level FlightAware (KWWD)
Thu 09:17:30 PM 38.3840 -75.1209 39° Northeast 522 601 37,000  Level FlightAware (KWWD)
Thu 09:18:00 PM 38.4395 -75.0624 40° Northeast 523 602 37,000  Level FlightAware (KWWD)
Thu 09:18:30 PM 38.4941 -75.0047 40° Northeast 523 602 37,000  Level FlightAware (KWWD)
Thu 09:19:00 PM 38.5527 -74.9427 40° Northeast 523 602 37,000  Level FlightAware (KWWD)
Thu 09:19:37 PM 38.6215 -74.8697 40° Northeast 525 604 37,000  Level FlightAware (KWWD)
Thu 09:20:40 PM 38.7383 -74.7452 40° Northeast 527 606 37,000  Level FlightAware (KWWD)
Thu 09:21:16 PM 38.8059 -74.6731 40° Northeast 529 609 37,000  Level FlightAware (KWWD)
Thu 09:22:13 PM 38.9140 -74.5573 40° Northeast 526 605 37,000  Level FlightAware (KWWD)
Thu 09:22:50 PM 38.9844 -74.4815 40° Northeast 527 606 37,000  Level FlightAware (KWWD)
Thu 09:23:21 PM 39.0412 -74.4204 40° Northeast 527 606 37,000  Level FlightAware (KWWD)
Thu 09:23:52 PM 39.0996 -74.3574 40° Northeast 527 606 37,000  Level FlightAware (KWWD)
Thu 09:24:30 PM 39.1728 -74.2781 40° Northeast 527 606 37,000  Level FlightAware (KWWD)
Thu 09:25:01 PM 39.2303 -74.2156 40° Northeast 528 608 37,000  Level FlightAware (KWWD)
Thu 09:25:31 PM 39.2863 -74.1546 40° Northeast 530 610 37,000  Level FlightAware (KWWD)
Thu 09:26:02 PM 39.3468 -74.0888 40° Northeast 529 609 37,000  Level FlightAware (KWWD)
Thu 09:26:32 PM 39.4016 -74.0289 40° Northeast 530 610 37,000  Level FlightAware (KWWD)
Thu 09:27:02 PM 39.4569 -73.9681 40° Northeast 530 610 37,000  Level FlightAware (KWWD)
Thu 09:27:32 PM 39.5164 -73.9027 40° Northeast 531 611 37,000  Level FlightAware (KWWD)
Thu 09:28:02 PM 39.5725 -73.8409 40° Northeast 531 611 37,000  Level FlightAware (KWWD)
Thu 09:28:32 PM 39.6295 -73.7782 40° Northeast 532 612 37,000  Level FlightAware (KWWD)
Thu 09:29:02 PM 39.6852 -73.7165 40° Northeast 533 613 37,000  Level FlightAware (KWWD)
Thu 09:29:32 PM 39.7434 -73.6521 40° Northeast 534 615 37,000  Level FlightAware (KWWD)
Thu 09:30:03 PM 39.8012 -73.5878 40° Northeast 534 615 37,000  Level FlightAware (KWWD)
Thu 09:30:33 PM 39.8587 -73.5238 41° Northeast 536 617 37,000  Level FlightAware (KWWD)
Thu 09:31:03 PM 39.9148 -73.4612 41° Northeast 538 619 37,000  Level FlightAware (KWWD)
Thu 09:31:43 PM 39.9897 -73.3773 41° Northeast 537 618 37,000  Level FlightAware (KWWD)
Thu 09:31:47 PM 39.9991 -73.3673 39° Northeast 543 625 37,000  Level FlightAware (KSNC)
Thu 09:32:13 PM 40.0529 -73.3228 32° Northeast 531 611 37,000  Level FlightAware (KWWD)
Thu 09:32:43 PM 40.1185 -73.2777 28° Northeast 529 609 37,000  Level FlightAware (KWWD)
Thu 09:33:13 PM 40.1854 -73.2349 26° Northeast 519 597 37,000  Level FlightAware (KWWD)
Thu 09:33:23 PM 40.2060 -73.2223 25° Northeast 520 598 37,000  Level FlightAware (KWWD)
Thu 09:33:53 PM 40.2544 -73.1924 25° Northeast 527 606 37,000  Level FlightAware (KSNC)
Thu 09:34:23 PM 40.3366 -73.1397 26° Northeast 520 598 37,000  Level FlightAware (KWWD)
Thu 09:34:53 PM 40.4029 -73.0964 26° Northeast 519 597 37,000  Level FlightAware (KWWD)
Thu 09:35:23 PM 40.4690 -73.0533 26° Northeast 520 598 37,000  Level FlightAware (KWWD)
Thu 09:35:53 PM 40.5345 -73.0103 26° Northeast 521 600 37,000  Level FlightAware (KWWD)
Thu 09:36:27 PM 40.6077 -72.9623 26° Northeast 529 609 37,000  Level FlightAware (KSNC)
Thu 09:37:03 PM 40.6863 -72.9105 27° Northeast 523 602 37,000  Level FlightAware (KWWD)
Thu 09:37:40 PM 40.7685 -72.8561 27° Northeast 530 610 37,000  Level FlightAware (KSNC)
Thu 09:38:13 PM 40.8417 -72.8076 27° Northeast 522 601 37,000  Level FlightAware (KWWD)
Thu 09:38:47 PM 40.9149 -72.7590 27° Northeast 528 608 37,000  Level FlightAware (KSNC)
Thu 09:39:19 PM 40.9836 -72.7133 27° Northeast 526 605 37,000  Level FlightAware (KWWD)
Thu 09:39:50 PM 41.0502 -72.6688 27° Northeast 525 604 37,000  Level FlightAware (KSNC)
Thu 09:40:20 PM 41.0973 -72.6373 27° Northeast 523 602 37,000  Level FlightAware (KSNC)
Thu 09:40:53 PM 41.1842 -72.5792 27° Northeast 520 598 37,000  Level FlightAware (KSNC)
Thu 09:41:33 PM 41.2645 -72.5252 27° Northeast 517 595 37,000  Level FlightAware (KSNC)
Thu 09:42:03 PM 41.3318 -72.4799 27° Northeast 516 594 37,000  Level FlightAware (KSNC)
Thu 09:42:47 PM 41.4295 -72.4138 27° Northeast 514 592 37,000  Level FlightAware (KSNC)
Thu 09:43:32 PM 41.5224 -72.3509 27° Northeast 513 590 37,000  Level FlightAware (KBKF)
Thu 09:44:11 PM 41.6095 -72.2918 27° Northeast 513 590 37,000  Level FlightAware (KSNC)
Thu 09:44:42 PM 41.6732 -72.2484 27° Northeast 516 594 37,000  Level FlightAware (KSNC)
Thu 09:45:14 PM 41.7408 -72.2021 27° Northeast 518 596 37,000  Level FlightAware (KSNC)
Thu 09:45:44 PM 41.8023 -72.1601 27° Northeast 520 598 37,000  Level FlightAware (KSNC)
Thu 09:46:14 PM 41.8709 -72.1129 27° Northeast 522 601 37,000  Level FlightAware (KBKF)
Thu 09:46:46 PM 41.9383 -72.0665 27° Northeast 522 601 37,000  Level FlightAware (KSNC)
Thu 09:47:16 PM 42.0035 -72.0214 27° Northeast 524 603 37,000  Level FlightAware (KSNC)
Thu 09:47:47 PM 42.0712 -71.9746 27° Northeast 526 605 37,000  Level FlightAware
Thu 09:48:19 PM 42.1295 -71.9344 27° Northeast 527 606 37,000  Level FlightAware (KBKF)
Thu 09:48:49 PM 42.2031 -71.8834 27° Northeast 529 609 37,000  Level FlightAware (KBKF)
Thu 09:49:26 PM 42.2845 -71.8265 27° Northeast 529 609 37,000  Level FlightAware (KSNC)
Thu 09:49:39 PM 42.3127 -71.8068 27° Northeast 529 609 37,000  Level FlightAware (EPKK / KRK)
Thu 09:50:12 PM 42.3817 -71.7585 27° Northeast 528 608 37,000  Level FlightAware (KSNC)
Thu 09:50:47 PM 42.4604 -71.7034 27° Northeast 529 609 37,000  Level FlightAware
Thu 09:51:17 PM 42.5266 -71.6569 27° Northeast 529 609 37,000  Level FlightAware
Thu 09:51:47 PM 42.5913 -71.6113 27° Northeast 530 610 37,000  Level FlightAware
Thu 09:52:17 PM 42.6572 -71.5648 27° Northeast 530 610 37,000  Level FlightAware
Thu 09:52:54 PM 42.7358 -71.5090 27° Northeast 529 609 37,000  Level FlightAware (EPKK / KRK)
Thu 09:53:25 PM 42.8033 -71.4611 28° Northeast 530 610 37,000  Level FlightAware (EPKK / KRK)
Thu 09:53:57 PM 42.8703 -71.4136 27° Northeast 528 608 37,000  Level FlightAware (EPKK / KRK)
Thu 09:54:27 PM 42.9379 -71.3652 28° Northeast 527 606 37,000  Level FlightAware (EPKK / KRK)
Thu 09:54:57 PM 43.0005 -71.3205 28° Northeast 527 606 37,000  Level FlightAware (EPKK / KRK)
Thu 09:55:28 PM 43.0681 -71.2721 28° Northeast 528 608 37,000  Level FlightAware (EPKK / KRK)
Thu 09:55:58 PM 43.1327 -71.2256 28° Northeast 529 609 37,000  Level FlightAware (KBKF)
Thu 09:56:28 PM 43.1987 -71.1781 28° Northeast 529 609 37,000  Level FlightAware (KBKF)
Thu 09:56:58 PM 43.2622 -71.1323 28° Northeast 532 612 37,000  Level FlightAware
Thu 09:57:30 PM 43.3323 -71.0815 28° Northeast 533 613 37,000  Level FlightAware (KBKF)
Thu 09:58:06 PM 43.4118 -71.0237 28° Northeast 534 615 37,000  Level FlightAware (KBKF)
Thu 09:58:10 PM 43.4210 -71.0170 28° Northeast 535 616 37,000  Level FlightAware
Thu 09:58:36 PM 43.4729 -70.9792 28° Northeast 536 617 37,000  Level FlightAware (KBKF)
Thu 09:58:44 PM 43.4950 -70.9630 28° Northeast 536 617 37,000  Level FlightAware
Thu 09:59:09 PM 43.5493 -70.9234 28° Northeast 536 617 37,000  Level FlightAware (EPKK / KRK)
Thu 09:59:20 PM 43.5710 -70.9080 27° Northeast 536 617 37,000  Level FlightAware
Thu 09:59:48 PM 43.6295 -70.8648 28° Northeast 533 613 37,000  Level FlightAware (EPKK / KRK)
Thu 09:59:53 PM 43.6470 -70.8520 28° Northeast 535 616 37,000  Level FlightAware
Thu 09:59:58 PM 43.6550 -70.8461 28° Northeast 527 606 37,000  Level FlightAware
Thu 10:00:28 PM 43.7211 -70.7975 28° Northeast 528 608 37,000  Level FlightAware
Thu 10:00:48 PM 43.7649 -70.7653 28° Northeast 528 608 37,000  Level FlightAware
Thu 10:01:21 PM 43.8362 -70.7126 28° Northeast 532 612 37,000  Level FlightAware (EPKK / KRK)
Thu 10:01:58 PM 43.9177 -70.6523 28° Northeast 532 612 37,000  Level FlightAware
Thu 10:02:32 PM 43.9883 -70.5999 28° Northeast 530 610 37,000  Level FlightAware (EPKK / KRK)
Thu 10:03:06 PM 44.0627 -70.5445 28° Northeast 528 608 37,000  Level FlightAware
Thu 10:03:37 PM 44.1288 -70.4952 28° Northeast 528 608 37,000  Level FlightAware (EPKK / KRK)
Thu 10:04:21 PM 44.2264 -70.4221 28° Northeast 528 608 37,000  Level FlightAware (EPKK / KRK)
Thu 10:04:52 PM 44.2919 -70.3729 28° Northeast 528 608 37,000  Level FlightAware (EPKK / KRK)
Thu 10:05:22 PM 44.3570 -70.3239 28° Northeast 529 609 37,000  Level FlightAware (EPKK / KRK)
Thu 10:06:02 PM 44.4419 -70.2598 28° Northeast 530 610 37,000  Level FlightAware (EPKK / KRK)
Thu 10:06:42 PM 44.5251 -70.1968 28° Northeast 529 609 37,000  Level FlightAware (EPKK / KRK)
Thu 10:07:15 PM 44.6000 -70.1398 28° Northeast 527 606 37,000  Level FlightAware
Thu 10:07:45 PM 44.6616 -70.0930 28° Northeast 524 603 37,000  Level FlightAware
Thu 10:08:40 PM 44.7719 -70.0142 27° Northeast 523 602 37,000  Level FlightAware
Thu 10:09:10 PM 44.8466 -69.9615 27° Northeast 524 603 37,000  Level FlightAware
Thu 10:09:41 PM 44.9060 -69.9192 27° Northeast 523 602 37,000  Level FlightAware
Thu 10:10:12 PM 44.9806 -69.8657 27° Northeast 526 605 37,000  Level FlightAware
Thu 10:10:53 PM 45.0659 -69.8045 27° Northeast 529 609 37,000  Level FlightAware
Thu 10:11:24 PM 45.1354 -69.7544 27° Northeast 528 608 37,000  Level FlightAware (YSBK / BWU)
Thu 10:12:03 PM 45.2217 -69.6922 27° Northeast 525 604 37,000  Level FlightAware
Thu 10:12:40 PM 45.3006 -69.6350 27° Northeast 527 606 37,000  Level FlightAware
Thu 10:13:11 PM 45.3646 -69.5886 27° Northeast 529 609 37,000  Level FlightAware
Thu 10:13:43 PM 45.4394 -69.5340 27° Northeast 529 609 37,000  Level FlightAware
Thu 10:14:17 PM 45.5130 -69.4801 27° Northeast 529 609 37,000  Level FlightAware
Thu 10:15:02 PM 45.6088 -69.4098 27° Northeast 527 606 37,000  Level FlightAware
Thu 10:15:43 PM 45.6975 -69.3446 27° Northeast 522 601 37,000  Level FlightAware
Thu 10:16:24 PM 45.7854 -69.2796 27° Northeast 520 598 37,000  Level FlightAware
Thu 10:17:04 PM 45.8715 -69.2159 27° Northeast 526 605 37,000  Level FlightAware
Thu 10:17:42 PM 45.9512 -69.1565 27° Northeast 528 608 37,000  Level FlightAware
Thu 10:18:14 PM 46.0235 -69.1026 27° Northeast 526 605 37,000  Level FlightAware
Thu 10:18:48 PM 46.0957 -69.0485 27° Northeast 521 600 37,000  Level FlightAware
Thu 10:19:19 PM 46.1618 -68.9990 27° Northeast 521 600 37,000  Level FlightAware
Thu 10:19:49 PM 46.2269 -68.9499 27° Northeast 522 601 37,000  Level FlightAware
Thu 10:20:29 PM 46.2840 -68.9068 28° Northeast 523 602 37,000  Level FlightAware
Thu 10:21:08 PM 46.3960 -68.8219 28° Northeast 522 601 37,000  Level FlightAware
Thu 10:21:45 PM 46.4740 -68.7627 28° Northeast 524 603 37,000  Level FlightAware
Thu 10:22:35 PM 46.5805 -68.6814 28° Northeast 524 603 37,000  Level FlightAware
Thu 10:24:32 PM 46.8301 -68.4894 28° Northeast 521 600 37,000  Level FlightAware
Thu 10:25:20 PM 46.9338 -68.4091 28° Northeast 520 598 37,000  Level FlightAware
Thu 10:26:02 PM 47.0222 -68.3403 28° Northeast 518 596 37,000  Level FlightAware
Thu 10:26:39 PM 47.0920 -68.2857 28° Northeast 519 597 37,000  Level FlightAware
Thu 10:27:10 PM 47.1613 -68.2316 28° Northeast 517 595 37,000  Level FlightAware
Thu 10:27:54 PM 47.2556 -68.1575 28° Northeast 515 593 37,000  Level FlightAware
Thu 10:28:34 PM 47.3386 -68.0920 28° Northeast 515 593 37,000  Level FlightAware
Thu 10:29:15 PM 47.4220 -68.0259 28° Northeast 512 589 37,000  Level FlightAware
Thu 10:29:55 PM 47.5107 -67.9554 28° Northeast 514 592 37,000  Level FlightAware
Thu 10:30:26 PM 47.5705 -67.9078 28° Northeast 515 593 37,000  Level FlightAware
Thu 10:31:04 PM 47.6538 -67.8411 28° Northeast 514 592 37,000  Level FlightAware
Thu 10:31:34 PM 47.7166 -67.7907 28° Northeast 516 594 37,000  Level FlightAware
Thu 10:32:04 PM 47.7805 -67.7392 28° Northeast 516 594 37,000  Level FlightAware
Thu 10:32:42 PM 47.8547 -67.6795 28° Northeast 516 594 37,000  Level FlightAware
Thu 10:33:20 PM 47.9394 -67.6109 28° Northeast 515 593 37,000  Level FlightAware
Thu 10:34:02 PM 48.0271 -67.5396 29° Northeast 515 593 37,000  Level FlightAware
Thu 10:34:32 PM 48.0898 -67.4884 29° Northeast 514 592 37,000  Level FlightAware
Thu 10:35:03 PM 48.1534 -67.4365 29° Northeast 516 594 37,000  Level FlightAware
Thu 10:35:38 PM 48.2260 -67.3769 29° Northeast 516 594 37,000  Level FlightAware
Thu 10:36:34 PM 48.3167 -67.3000 29° Northeast 520 598 37,000  Level Gander Center
Thu 10:37:34 PM 48.4500 -67.1833 30° Northeast 510 587 37,000  Level Gander Center
Thu 10:38:34 PM 48.5833 -67.0667 30° Northeast 510 587 37,000  Level Gander Center
Thu 10:39:34 PM 48.6833 -66.9833 29° Northeast 510 587 37,000  Level Gander Center
Thu 10:40:34 PM 48.8333 -66.8667 27° Northeast 510 587 37,000  Level Gander Center
Thu 10:41:34 PM 48.9500 -66.7500 33° Northeast 510 587 37,000  Level Gander Center
Thu 10:42:34 PM 49.0667 -66.6667 25° Northeast 510 587 37,000  Level Gander Center
Thu 10:43:34 PM 49.2000 -66.5500 30° Northeast 510 587 37,000  Level Gander Center
Thu 10:44:34 PM 49.3167 -66.4333 33° Northeast 520 598 37,000  Level Gander Center
Thu 10:45:34 PM 49.4500 -66.3333 26° Northeast 520 598 37,000  Level Gander Center
Thu 10:46:34 PM 49.5833 -66.2333 26° Northeast 520 598 37,000  Level Gander Center
Thu 10:47:34 PM 49.7000 -66.1167 33° Northeast 520 598 37,000  Level Gander Center
Thu 10:48:34 PM 49.8167 -66.0000 33° Northeast 520 598 37,000  Level Gander Center
Thu 10:49:34 PM 49.9667 -65.8833 27° Northeast 520 598 37,000  Level Gander Center
Thu 10:50:34 PM 50.0667 -65.7833 33° Northeast 520 598 37,000  Level Gander Center
Thu 10:51:34 PM 50.2000 -65.6667 29° Northeast 520 598 37,000  Level Gander Center
Thu 10:52:34 PM 50.3167 -65.5500 33° Northeast 520 598 37,000  Level Gander Center
Thu 10:53:34 PM 50.4500 -65.4667 22° Northeast 520 598 37,000  Level Gander Center
Thu 10:54:34 PM 50.5667 -65.3333 36° Northeast 520 598 37,000  Level Gander Center
Thu 10:55:34 PM 50.6833 -65.2167 32° Northeast 520 598 37,000  Level Gander Center
Thu 10:56:34 PM 50.8333 -65.1000 26° Northeast 520 598 37,000  Level Gander Center
Thu 10:57:34 PM 50.9500 -64.9667 36° Northeast 520 598 37,000  Level Gander Center
Thu 10:58:34 PM 51.0667 -64.8500 32° Northeast 520 598 37,000  Level Gander Center
Thu 10:59:34 PM 51.1833 -64.7500 28° Northeast 520 598 37,000  Level Gander Center
Thu 11:00:34 PM 51.3333 -64.6333 26° Northeast 520 598 37,000  Level Gander Center
Thu 11:01:34 PM 51.4500 -64.5000 35° Northeast 520 598 37,000  Level Gander Center
Thu 11:02:34 PM 51.5667 -64.4000 28° Northeast 520 598 37,000  Level Gander Center
Thu 11:03:34 PM 51.6833 -64.2833 32° Northeast 520 598 37,000  Level Gander Center
Thu 11:04:34 PM 51.8000 -64.1500 35° Northeast 520 598 37,000  Level Gander Center
Thu 11:05:34 PM 51.9500 -64.0167 29° Northeast 520 598 37,000  Level Gander Center
Thu 11:06:34 PM 52.0667 -63.9167 28° Northeast 520 598 37,000  Level Gander Center
Thu 11:07:34 PM 52.1833 -63.7833 35° Northeast 520 598 37,000  Level Gander Center
Thu 11:08:34 PM 52.3000 -63.6667 31° Northeast 520 598 37,000  Level Gander Center
Thu 11:09:34 PM 52.4167 -63.5333 35° Northeast 520 598 37,000  Level Gander Center
Thu 11:10:34 PM 52.5333 -63.4333 28° Northeast 520 598 37,000  Level Gander Center
Thu 11:11:34 PM 52.6667 -63.2667 37° Northeast 510 587 37,000  Level Gander Center
Thu 11:12:34 PM 52.7833 -63.1333 35° Northeast 510 587 37,000  Level Gander Center
Thu 11:13:34 PM 52.9000 -62.9667 41° Northeast 510 587 37,000  Level Gander Center
Thu 11:14:34 PM 53.0000 -62.8333 39° Northeast 510 587 37,000  Level Gander Center
Thu 11:15:34 PM 53.1000 -62.7000 39° Northeast 510 587 37,000  Level Gander Center
Thu 11:16:34 PM 53.2167 -62.5333 41° Northeast 510 587 37,000  Level Gander Center
Thu 11:17:34 PM 53.3333 -62.4000 34° Northeast 510 587 37,000  Level Gander Center
Thu 11:18:34 PM 53.4667 -62.2333 37° Northeast 510 587 37,000  Level Gander Center
Thu 11:19:34 PM 53.5667 -62.1000 38° Northeast 510 587 37,000  Level Gander Center
Thu 11:20:34 PM 53.6667 -61.9667 38° Northeast 510 587 37,000  Level Gander Center
Thu 11:21:34 PM 53.7833 -61.7833 43° Northeast 510 587 37,000  Level Gander Center
Thu 11:22:34 PM 53.9000 -61.6500 34° Northeast 520 598 37,000  Level Gander Center
Thu 11:23:34 PM 54.0167 -61.4833 40° Northeast 520 598 37,000  Level Gander Center
Thu 11:24:34 PM 54.1167 -61.3333 41° Northeast 520 598 37,000  Level Gander Center
Thu 11:25:34 PM 54.2333 -61.1667 40° Northeast 520 598 37,000  Level Gander Center
Thu 11:26:34 PM 54.3500 -61.0167 37° Northeast 530 610 37,000 -50 Level Gander Center
Thu 11:27:34 PM 54.4500 -60.8500 44° Northeast 520 598 36,900 -250 Descending Gander Center
Thu 11:28:34 PM 54.5833 -60.7000 33° Northeast 520 598 36,500 -300 Descending Gander Center
Thu 11:29:34 PM 54.6833 -60.5667 38° Northeast 510 587 36,300 -250 Descending Gander Center
Thu 11:30:34 PM 54.8000 -60.3833 42° Northeast 520 598 36,000 -150 Descending Gander Center
Thu 11:31:34 PM 54.9167 -60.2000 42° Northeast 530 610 36,000  Level Gander Center
Thu 11:32:34 PM 55.0333 -60.0333 39° Northeast 540 621 36,000  Level Gander Center
Thu 11:33:34 PM 55.1500 -59.8833 36° Northeast 540 621 36,000  Level Gander Center
Thu 11:34:34 PM 55.2333 -59.7000 51° Northeast 540 621 36,000  Level Gander Center
Thu 11:35:34 PM 55.3667 -59.5167 38° Northeast 540 621 36,000  Level Gander Center
Thu 11:36:34 PM 55.4667 -59.3667 40° Northeast 550 633 36,000  Level Gander Center
Thu 11:37:34 PM 55.6000 -59.1833 38° Northeast 550 633 36,000  Level Gander Center
Thu 11:38:34 PM 55.7167 -59.0000 41° Northeast 550 633 36,000  Level Gander Center
Thu 11:39:34 PM 55.8333 -58.8167 41° Northeast 550 633 36,000  Level Gander Center
Thu 11:40:34 PM 55.9333 -58.6500 43° Northeast 550 633 36,000  Level Gander Center
Thu 11:41:34 PM 56.0500 -58.4667 41° Northeast 550 633 36,000  Level Gander Center
Thu 11:42:34 PM 56.1667 -58.2833 41° Northeast 540 621 36,000  Level Gander Center
Thu 11:43:34 PM 56.2833 -58.1167 38° Northeast 550 633 36,000  Level Gander Center
Thu 11:44:34 PM 56.3667 -57.8833 57° Northeast 540 621 36,000  Level Gander Center
Thu 11:45:34 PM 56.4500 -57.6833 53° Northeast 540 621 36,000  Level Gander Center
Thu 11:46:34 PM 56.5500 -57.4333 54° Northeast 540 621 36,000  Level Gander Center
Thu 11:47:34 PM 56.6333 -57.2167 55° Northeast 540 621 36,000  Level Gander Center
Thu 11:48:34 PM 56.7167 -57.0167 53° Northeast 550 633 36,000  Level Gander Center
Thu 11:49:34 PM 56.8000 -56.8000 55° Northeast 550 633 36,000  Level Gander Center
Thu 11:50:37 PM 56.8833 -56.5833 55° Northeast 540 621 36,000  Level Gander Center
Thu 11:51:37 PM 56.9500 -56.3167 65° Northeast 550 633 36,000  Level Gander Center
Thu 11:52:37 PM 57.0500 -56.1000 50° Northeast 540 621 36,000  Level Gander Center
Thu 11:53:37 PM 57.1167 -55.8667 62° Northeast 550 633 36,000  Level Gander Center
Thu 11:54:37 PM 57.2167 -55.6167 53° Northeast 550 633 36,000  Level Gander Center
Thu 11:55:37 PM 57.2833 -55.4167 58° Northeast 540 621 36,000  Level Gander Center
Thu 11:56:37 PM 57.3833 -55.1500 55° Northeast 550 633 36,000  Level Gander Center
Thu 11:57:37 PM 57.5000 -54.9167 47° Northeast 550 633 36,000  Level Gander Center
Thu 11:59:00 PM 57.6083 -54.5942 58° Northeast  Level FlightAware
Fri 12:06:00 AM 58.1252 -52.9914 58° Northeast  Level FlightAware
Fri 12:07:00 AM 58.1974 -52.7587 59° Northeast  Level FlightAware
Fri 12:08:00 AM 58.2691 -52.5250 60° Northeast  Level FlightAware
Fri 12:09:00 AM 58.3405 -52.2904 60° Northeast  Level FlightAware
Fri 12:10:00 AM 58.4113 -52.0548 60° Northeast  Level FlightAware
Fri 12:11:00 AM 58.4818 -51.8183 60° Northeast  Level FlightAware
Fri 12:12:00 AM 58.5518 -51.5808 60° Northeast  Level FlightAware
Fri 12:13:00 AM 58.6214 -51.3424 61° Northeast  Level FlightAware
Fri 12:14:00 AM 58.6905 -51.1031 61° Northeast  Level FlightAware
Fri 12:15:00 AM 58.7592 -50.8628 61° Northeast  Level FlightAware
Fri 12:16:00 AM 58.8275 -50.6215 61° Northeast  Level FlightAware
Fri 12:17:00 AM 58.8953 -50.3793 61° Northeast  Level FlightAware
Fri 12:18:00 AM 58.9626 -50.1362 62° Northeast  Level FlightAware
Fri 12:19:00 AM 59.0368 -49.9001 54° Northeast  Level FlightAware
Fri 12:20:00 AM 59.1194 -49.6744 54° Northeast  Level FlightAware
Fri 12:21:00 AM 59.2016 -49.4475 55° Northeast  Level FlightAware
Fri 12:22:00 AM 59.2835 -49.2196 55° Northeast  Level FlightAware
Fri 12:23:00 AM 59.3649 -48.9906 55° Northeast  Level FlightAware
Fri 12:24:00 AM 59.4459 -48.7604 55° Northeast  Level FlightAware
Fri 12:25:00 AM 59.5265 -48.5292 55° Northeast  Level FlightAware
Fri 12:26:00 AM 59.6067 -48.2969 56° Northeast  Level FlightAware
Fri 12:27:00 AM 59.6865 -48.0634 56° Northeast  Level FlightAware
Fri 12:28:00 AM 59.7659 -47.8289 56° Northeast  Level FlightAware
Fri 12:29:00 AM 59.8448 -47.5932 56° Northeast  Level FlightAware
Fri 12:30:00 AM 59.9234 -47.3564 56° Northeast  Level FlightAware
Fri 12:31:00 AM 60.0015 -47.1185 57° Northeast  Level FlightAware
Fri 12:32:00 AM 60.0792 -46.8795 57° Northeast  Level FlightAware
Fri 12:33:00 AM 60.1564 -46.6393 57° Northeast  Level FlightAware
Fri 12:34:00 AM 60.2332 -46.3980 57° Northeast  Level FlightAware
Fri 12:35:00 AM 60.3096 -46.1556 57° Northeast  Level FlightAware
Fri 12:36:00 AM 60.3855 -45.9121 58° Northeast  Level FlightAware
Fri 12:37:00 AM 60.4610 -45.6674 58° Northeast  Level FlightAware
Fri 12:38:00 AM 60.5360 -45.4216 58° Northeast  Level FlightAware
Fri 12:39:00 AM 60.6106 -45.1746 58° Northeast  Level FlightAware
Fri 12:40:00 AM 60.6847 -44.9265 59° Northeast  Level FlightAware
Fri 12:41:00 AM 60.7584 -44.6773 59° Northeast  Level FlightAware
Fri 12:42:00 AM 60.8315 -44.4269 59° Northeast  Level FlightAware
Fri 12:43:00 AM 60.9043 -44.1754 59° Northeast  Level FlightAware
Fri 12:44:00 AM 60.9765 -43.9227 59° Northeast  Level FlightAware
Fri 12:45:00 AM 61.0483 -43.6689 60° Northeast  Level FlightAware
Fri 12:46:00 AM 61.1196 -43.4139 60° Northeast  Level FlightAware
Fri 12:47:00 AM 61.1904 -43.1578 60° Northeast  Level FlightAware
Fri 12:48:00 AM 61.2607 -42.9005 60° Northeast  Level FlightAware
Fri 12:49:00 AM 61.3306 -42.6421 61° Northeast  Level FlightAware
Fri 12:50:00 AM 61.3999 -42.3825 61° Northeast  Level FlightAware
Fri 12:51:00 AM 61.4688 -42.1218 61° Northeast  Level FlightAware
Fri 12:52:00 AM 61.5371 -41.8600 61° Northeast  Level FlightAware
Fri 12:53:00 AM 61.6050 -41.5969 61° Northeast  Level FlightAware
Fri 12:54:00 AM 61.6723 -41.3328 62° Northeast  Level FlightAware
Fri 12:55:00 AM 61.7392 -41.0674 62° Northeast  Level FlightAware
Fri 12:56:00 AM 61.8055 -40.8010 62° Northeast  Level FlightAware
Fri 12:57:00 AM 61.8713 -40.5333 62° Northeast  Level FlightAware
Fri 12:58:00 AM 61.9365 -40.2646 63° Northeast  Level FlightAware
Fri 12:59:00 AM 62.0013 -39.9947 62° Northeast  Level FlightAware
Fri 01:00:00 AM 62.0680 -39.7263 62° Northeast  Level FlightAware
Fri 01:01:00 AM 62.1341 -39.4567 62° Northeast  Level FlightAware
Fri 01:02:00 AM 62.1997 -39.1860 62° Northeast  Level FlightAware
Fri 01:03:00 AM 62.2648 -38.9141 63° Northeast  Level FlightAware
Fri 01:04:00 AM 62.3293 -38.6410 63° Northeast  Level FlightAware
Fri 01:05:00 AM 62.3933 -38.3667 63° Northeast  Level FlightAware
Fri 01:06:00 AM 62.4567 -38.0913 63° Northeast  Level FlightAware
Fri 01:07:00 AM 62.5197 -37.8147 64° Northeast  Level FlightAware
Fri 01:08:00 AM 62.5820 -37.5369 64° Northeast  Level FlightAware
Fri 01:09:00 AM 62.6438 -37.2580 64° Northeast  Level FlightAware
Fri 01:10:00 AM 62.7051 -36.9779 64° Northeast  Level FlightAware
Fri 01:11:00 AM 62.7658 -36.6967 65° Northeast  Level FlightAware
Fri 01:12:00 AM 62.8259 -36.4143 65° Northeast  Level FlightAware
Fri 01:13:00 AM 62.8858 -36.1311 65° Northeast  Level FlightAware
Fri 01:14:00 AM 62.9453 -35.8469 65° Northeast  Level FlightAware
Fri 01:15:00 AM 63.0043 -35.5616 65° Northeast  Level FlightAware
Fri 01:16:00 AM 63.0627 -35.2752 66° East  Level FlightAware
Fri 01:17:00 AM 63.1205 -34.9876 66° East  Level FlightAware
Fri 01:18:00 AM 63.1778 -34.6989 66° East  Level FlightAware
Fri 01:19:00 AM 63.2344 -34.4090 66° East  Level FlightAware
Fri 01:20:00 AM 63.2905 -34.1180 67° East  Level FlightAware
Fri 01:21:00 AM 63.3460 -33.8259 67° East  Level FlightAware
Fri 01:22:00 AM 63.4008 -33.5326 67° East  Level FlightAware
Fri 01:23:00 AM 63.4551 -33.2383 67° East  Level FlightAware
Fri 01:24:00 AM 63.5087 -32.9428 68° East  Level FlightAware
Fri 01:25:00 AM 63.5618 -32.6462 68° East  Level FlightAware
Fri 01:26:00 AM 63.6142 -32.3485 68° East  Level FlightAware
Fri 01:27:00 AM 63.6660 -32.0497 69° East  Level FlightAware
Fri 01:28:00 AM 63.7172 -31.7499 69° East  Level FlightAware
Fri 01:29:00 AM 63.7677 -31.4489 69° East  Level FlightAware
Fri 01:30:00 AM 63.8177 -31.1469 69° East  Level FlightAware
Fri 01:31:00 AM 63.8670 -30.8438 70° East  Level FlightAware
Fri 01:32:00 AM 63.9156 -30.5397 70° East  Level FlightAware
Fri 01:33:00 AM 63.9636 -30.2345 70° East  Level FlightAware
Fri 01:34:00 AM 64.0100 -29.9275 72° East  Level FlightAware
Fri 01:35:00 AM 64.0525 -29.6171 73° East  Level FlightAware
Fri 01:36:00 AM 64.0943 -29.3057 73° East  Level FlightAware
Fri 01:37:00 AM 64.1355 -28.9934 73° East  Level FlightAware
Fri 01:38:00 AM 64.1760 -28.6802 73° East  Level FlightAware
Fri 01:39:00 AM 64.2158 -28.3661 74° East  Level FlightAware
Fri 01:40:00 AM 64.2549 -28.0511 74° East  Level FlightAware
Fri 01:41:00 AM 64.2934 -27.7351 74° East  Level FlightAware
Fri 01:42:00 AM 64.3311 -27.4184 74° East  Level FlightAware
Fri 01:43:00 AM 64.3682 -27.1007 75° East  Level FlightAware
Fri 01:44:00 AM 64.4046 -26.7822 75° East  Level FlightAware
Fri 01:45:00 AM 64.4403 -26.4629 75° East  Level FlightAware
Fri 01:46:00 AM 64.4753 -26.1427 76° East  Level FlightAware
Fri 01:47:00 AM 64.5096 -25.8217 76° East  Level FlightAware
Fri 01:48:00 AM 64.5432 -25.4999 76° East  Level FlightAware
Fri 01:49:00 AM 64.5761 -25.1774 76° East  Level FlightAware
Fri 01:50:00 AM 64.6083 -24.8540 77° East  Level FlightAware
Fri 01:51:00 AM 64.6398 -24.5300 77° East  Level FlightAware
Fri 01:52:00 AM 64.6706 -24.2051 77° East  Level FlightAware
Fri 01:53:00 AM 64.7007 -23.8796 78° East  Level FlightAware
Fri 01:54:00 AM 64.7300 -23.5533 78° East  Level FlightAware
Fri 01:55:00 AM 64.7587 -23.2263 78° East  Level FlightAware
Fri 01:56:00 AM 64.7866 -22.8986 79° East  Level FlightAware
Fri 01:57:00 AM 64.8138 -22.5703 79° East  Level FlightAware
Fri 01:58:00 AM 64.8402 -22.2413 79° East  Level FlightAware
Fri 01:59:00 AM 64.8660 -21.9117 79° East  Level FlightAware
Fri 02:00:00 AM 64.8910 -21.5814 80° East  Level FlightAware
Fri 02:01:00 AM 64.9152 -21.2506 80° East  Level FlightAware
Fri 02:02:00 AM 64.9388 -20.9191 80° East  Level FlightAware
Fri 02:03:00 AM 64.9616 -20.5871 81° East  Level FlightAware
Fri 02:04:00 AM 64.9836 -20.2545 81° East  Level FlightAware
Fri 02:05:00 AM 65.0026 -19.9208 85° East  Level FlightAware
Fri 02:06:00 AM 65.0133 -19.5846 86° East  Level FlightAware
Fri 02:07:00 AM 65.0233 -19.2482 86° East  Level FlightAware
Fri 02:08:00 AM 65.0325 -18.9116 86° East  Level FlightAware
Fri 02:09:00 AM 65.0409 -18.5747 86° East  Level FlightAware
Fri 02:10:00 AM 65.0486 -18.2377 87° East  Level FlightAware
Fri 02:11:00 AM 65.0555 -17.9004 87° East  Level FlightAware
Fri 02:12:00 AM 65.0617 -17.5630 87° East  Level FlightAware
Fri 02:13:00 AM 65.0670 -17.2255 88° East  Level FlightAware
Fri 02:14:00 AM 65.0717 -16.8878 88° East  Level FlightAware
Fri 02:15:00 AM 65.0755 -16.5500 88° East  Level FlightAware
Fri 02:16:00 AM 65.0787 -16.2121 89° East  Level FlightAware
Fri 02:17:00 AM 65.0810 -15.8742 89° East  Level FlightAware
Fri 02:18:00 AM 65.0826 -15.5361 89° East  Level FlightAware
Fri 02:19:00 AM 65.0834 -15.1981 90° East  Level FlightAware
Fri 02:20:00 AM 65.0835 -14.8601 90° East  Level FlightAware
Fri 02:21:00 AM 65.0828 -14.5220 90° East  Level FlightAware
Fri 02:22:00 AM 65.0813 -14.1840 90° East  Level FlightAware
Fri 02:23:00 AM 65.0791 -13.8461 91° East  Level FlightAware
Fri 02:24:00 AM 65.0761 -13.5082 91° East  Level FlightAware
Fri 02:25:00 AM 65.0724 -13.1704 91° East  Level FlightAware
Fri 02:26:00 AM 65.0679 -12.8327 92° East  Level FlightAware
Fri 02:27:00 AM 65.0626 -12.4951 92° East  Level FlightAware
Fri 02:28:00 AM 65.0566 -12.1576 92° East  Level FlightAware
Fri 02:29:00 AM 65.0498 -11.8203 93° East  Level FlightAware
Fri 02:30:00 AM 65.0423 -11.4832 93° East  Level FlightAware
Fri 02:31:00 AM 65.0340 -11.1464 93° East  Level FlightAware
Fri 02:32:00 AM 65.0249 -10.8097 93° East  Level FlightAware
Fri 02:33:00 AM 65.0151 -10.4732 94° East  Level FlightAware
Fri 02:34:00 AM 65.0045 -10.1371 94° East  Level FlightAware
Fri 02:35:00 AM 65.0065 -9.8011 85° East  Level FlightAware
Fri 02:36:00 AM 65.0170 -9.4648 86° East  Level FlightAware
Fri 02:37:00 AM 65.0266 -9.1284 86° East  Level FlightAware
Fri 02:38:00 AM 65.0356 -8.7916 86° East  Level FlightAware
Fri 02:39:00 AM 65.0437 -8.4547 87° East  Level FlightAware
Fri 02:40:00 AM 65.0511 -8.1176 87° East  Level FlightAware
Fri 02:41:00 AM 65.0578 -7.7803 87° East  Level FlightAware
Fri 02:42:00 AM 65.0637 -7.4428 87° East  Level FlightAware
Fri 02:43:00 AM 65.0688 -7.1052 88° East  Level FlightAware
Fri 02:44:00 AM 65.0731 -6.7674 88° East  Level FlightAware
Fri 02:45:00 AM 65.0767 -6.4296 88° East  Level FlightAware
Fri 02:46:00 AM 65.0796 -6.0917 89° East  Level FlightAware
Fri 02:47:00 AM 65.0817 -5.7537 89° East  Level FlightAware
Fri 02:48:00 AM 65.0830 -5.4157 89° East  Level FlightAware
Fri 02:49:00 AM 65.0835 -5.0777 90° East  Level FlightAware
Fri 02:50:00 AM 65.0833 -4.7396 90° East  Level FlightAware
Fri 02:51:00 AM 65.0824 -4.4016 90° East  Level FlightAware
Fri 02:52:00 AM 65.0806 -4.0636 91° East  Level FlightAware
Fri 02:53:00 AM 65.0781 -3.7257 91° East  Level FlightAware
Fri 02:54:00 AM 65.0749 -3.3878 91° East  Level FlightAware
Fri 02:55:00 AM 65.0709 -3.0501 91° East  Level FlightAware
Fri 02:56:00 AM 65.0661 -2.7124 92° East  Level FlightAware
Fri 02:57:00 AM 65.0606 -2.3749 92° East  Level FlightAware
Fri 02:58:00 AM 65.0543 -2.0375 92° East  Level FlightAware
Fri 02:59:00 AM 65.0472 -1.7003 93° East  Level FlightAware
Fri 03:00:00 AM 65.0394 -1.3632 93° East  Level FlightAware
Fri 03:01:00 AM 65.0308 -1.0264 93° East  Level FlightAware
Fri 03:02:00 AM 65.0215 -0.6898 94° East  Level FlightAware
Fri 03:03:00 AM 65.0114 -0.3535 94° East  Level FlightAware
Fri 03:04:00 AM 65.0006 -0.0174 94° East  Level FlightAware
Fri 03:05:00 AM 64.9795 0.3157 99° East  Level FlightAware
Fri 03:06:00 AM 64.9571 0.6481 99° East  Level FlightAware
Fri 03:07:00 AM 64.9340 0.9800 99° East  Level FlightAware
Fri 03:08:00 AM 64.9102 1.3112 99° East  Level FlightAware
Fri 03:09:00 AM 64.8856 1.6419 100° East  Level FlightAware
Fri 03:10:00 AM 64.8603 1.9720 100° East  Level FlightAware
Fri 03:11:00 AM 64.8343 2.3014 100° East  Level FlightAware
Fri 03:12:00 AM 64.8075 2.6302 101° East  Level FlightAware
Fri 03:13:00 AM 64.7800 2.9583 101° East  Level FlightAware
Fri 03:14:00 AM 64.7518 3.2857 101° East  Level FlightAware
Fri 03:15:00 AM 64.7229 3.6125 102° East  Level FlightAware
Fri 03:16:00 AM 64.6932 3.9385 102° East  Level FlightAware
Fri 03:17:00 AM 64.6628 4.2639 102° East  Level FlightAware
Fri 03:18:00 AM 64.6318 4.5884 102° East  Level FlightAware
Fri 03:19:00 AM 64.6000 4.9123 103° East  Level FlightAware
Fri 03:20:00 AM 64.5675 5.2354 103° East  Level FlightAware
Fri 03:21:00 AM 64.5343 5.5576 103° East  Level FlightAware
Fri 03:22:00 AM 64.5004 5.8791 104° East  Level FlightAware
Fri 03:23:00 AM 64.4658 6.1998 104° East  Level FlightAware
Fri 03:24:00 AM 64.4305 6.5197 104° East  Level FlightAware
Fri 03:25:00 AM 64.3945 6.8388 104° East  Level FlightAware
Fri 03:26:00 AM 64.3578 7.1570 105° East  Level FlightAware
Fri 03:27:00 AM 64.3204 7.4743 105° East  Level FlightAware
Fri 03:28:00 AM 64.2824 7.7908 105° East  Level FlightAware
Fri 03:29:00 AM 64.2436 8.1064 106° East  Level FlightAware
Fri 03:30:00 AM 64.2042 8.4211 106° East  Level FlightAware
Fri 03:31:00 AM 64.1641 8.7349 106° East  Level FlightAware
Fri 03:32:00 AM 64.1234 9.0478 106° East  Level FlightAware
Fri 03:33:00 AM 64.0819 9.3598 107° East  Level FlightAware
Fri 03:34:00 AM 64.0398 9.6708 107° East  Level FlightAware
Fri 03:35:00 AM 63.9971 9.9809 107° East  Level FlightAware
Fri 03:36:00 AM 63.9537 10.2901 108° East  Level FlightAware
Fri 03:37:00 AM 63.9096 10.5982 108° East  Level FlightAware
Fri 03:38:00 AM 63.8649 10.9054 108° East  Level FlightAware
Fri 03:39:00 AM 63.8195 11.2117 108° East  Level FlightAware
Fri 03:40:00 AM 63.7735 11.5169 109° East  Level FlightAware
Fri 03:41:00 AM 63.7268 11.8211 109° East  Level FlightAware
Fri 03:42:00 AM 63.6795 12.1243 109° East  Level FlightAware
Fri 03:43:00 AM 63.6316 12.4265 110° East  Level FlightAware
Fri 03:44:00 AM 63.5830 12.7277 110° East  Level FlightAware
Fri 03:45:00 AM 63.5338 13.0278 110° East  Level FlightAware
Fri 03:46:00 AM 63.4840 13.3269 110° East  Level FlightAware
Fri 03:47:00 AM 63.4335 13.6250 111° Southeast  Level FlightAware
Fri 03:48:00 AM 63.3825 13.9220 111° Southeast  Level FlightAware
Fri 03:49:00 AM 63.3308 14.2179 111° Southeast  Level FlightAware
Fri 03:50:00 AM 63.2785 14.5128 111° Southeast  Level FlightAware
Fri 03:51:00 AM 63.2256 14.8066 112° Southeast  Level FlightAware
Fri 03:52:00 AM 63.1721 15.0993 112° Southeast  Level FlightAware
Fri 03:53:00 AM 63.1180 15.3910 112° Southeast  Level FlightAware
Fri 03:54:00 AM 63.0633 15.6815 112° Southeast  Level FlightAware
Fri 03:55:00 AM 63.0080 15.9709 113° Southeast  Level FlightAware
Fri 03:56:00 AM 62.9521 16.2593 113° Southeast  Level FlightAware
Fri 03:57:00 AM 62.8956 16.5465 113° Southeast  Level FlightAware
Fri 03:58:00 AM 62.8386 16.8327 113° Southeast  Level FlightAware
Fri 03:59:00 AM 62.7810 17.1177 114° Southeast  Level FlightAware
Fri 04:00:00 AM 62.7228 17.4016 114° Southeast  Level FlightAware
Fri 04:01:00 AM 62.6640 17.6844 114° Southeast  Level FlightAware
Fri 04:02:00 AM 62.6047 17.9660 114° Southeast  Level FlightAware
Fri 04:03:00 AM 62.5448 18.2465 115° Southeast  Level FlightAware
Fri 04:04:00 AM 62.4843 18.5259 115° Southeast  Level FlightAware
Fri 04:05:00 AM 62.4233 18.8042 115° Southeast  Level FlightAware
Fri 04:06:00 AM 62.3617 19.0813 115° Southeast  Level FlightAware
Fri 04:07:00 AM 62.2996 19.3573 116° Southeast  Level FlightAware
Fri 04:08:00 AM 62.2369 19.6321 116° Southeast  Level FlightAware
Fri 04:09:00 AM 62.1737 19.9058 116° Southeast  Level FlightAware
Fri 04:10:00 AM 62.1100 20.1784 117° Southeast  Level FlightAware
Fri 04:11:00 AM 62.0458 20.4499 117° Southeast  Level FlightAware
Fri 04:12:00 AM 61.9811 20.7202 117° Southeast  Level FlightAware
Fri 04:13:00 AM 61.9159 20.9895 117° Southeast  Level FlightAware
Fri 04:14:00 AM 61.8502 21.2575 117° Southeast  Level FlightAware
Fri 04:15:00 AM 61.7839 21.5244 118° Southeast  Level FlightAware
Fri 04:16:00 AM 61.7171 21.7902 118° Southeast  Level FlightAware
Fri 04:17:00 AM 61.6498 22.0548 118° Southeast  Level FlightAware
Fri 04:18:00 AM 61.5820 22.3182 118° Southeast  Level FlightAware
Fri 04:19:00 AM 61.5137 22.5805 119° Southeast  Level FlightAware
Fri 04:20:00 AM 61.4449 22.8417 119° Southeast  Level FlightAware
Fri 04:21:00 AM 61.3755 23.1016 119° Southeast  Level FlightAware
Fri 04:22:00 AM 61.3057 23.3605 119° Southeast  Level FlightAware
Fri 04:23:00 AM 61.2354 23.6182 119° Southeast  Level FlightAware
Fri 04:24:00 AM 61.1647 23.8747 120° Southeast  Level FlightAware
Fri 04:25:00 AM 61.0934 24.1300 120° Southeast  Level FlightAware
Fri 04:26:00 AM 61.0216 24.3843 120° Southeast  Level FlightAware
Fri 04:27:00 AM 60.9494 24.6373 120° Southeast  Level FlightAware
Fri 04:28:00 AM 60.8767 24.8892 121° Southeast  Level FlightAware
Fri 04:29:00 AM 60.8036 25.1400 121° Southeast  Level FlightAware
Fri 04:30:00 AM 60.7299 25.3896 121° Southeast  Level FlightAware
Fri 04:31:00 AM 60.6558 25.6381 121° Southeast  Level FlightAware
Fri 04:32:00 AM 60.5813 25.8855 121° Southeast  Level FlightAware
Fri 04:33:00 AM 60.5063 26.1316 122° Southeast  Level FlightAware
Fri 04:34:00 AM 60.4309 26.3767 122° Southeast  Level FlightAware
Fri 04:35:00 AM 60.3549 26.6206 122° Southeast  Level FlightAware
Fri 04:36:00 AM 60.2786 26.8634 122° Southeast  Level FlightAware
Fri 04:37:00 AM 60.2018 27.1050 123° Southeast  Level FlightAware
Fri 04:38:00 AM 60.1246 27.3455 123° Southeast  Level FlightAware
Fri 04:39:00 AM 60.0469 27.5849 123° Southeast  Level FlightAware
Fri 04:40:00 AM 59.9688 27.8232 123° Southeast  Level FlightAware
Fri 04:41:00 AM 59.8903 28.0603 123° Southeast  Level FlightAware
Fri 04:42:00 AM 59.8114 28.2963 124° Southeast  Level FlightAware
Fri 04:43:00 AM 59.7320 28.5312 124° Southeast  Level FlightAware
Fri 04:44:00 AM 59.6522 28.7650 124° Southeast  Level FlightAware
Fri 04:45:00 AM 59.5720 28.9977 124° Southeast  Level FlightAware
Fri 04:46:00 AM 59.4915 29.2292 124° Southeast  Level FlightAware
Fri 04:47:00 AM 59.4104 29.4597 125° Southeast  Level FlightAware
Fri 04:48:00 AM 59.3290 29.6890 125° Southeast  Level FlightAware
Fri 04:49:00 AM 59.2472 29.9173 125° Southeast  Level FlightAware
Fri 04:50:00 AM 59.1650 30.1444 125° Southeast  Level FlightAware
Fri 04:51:00 AM 59.0824 30.3705 125° Southeast  Level FlightAware
Fri 04:52:00 AM 58.9994 30.5954 126° Southeast  Level FlightAware
Fri 04:53:00 AM 58.9160 30.8193 126° Southeast  Level FlightAware
Fri 04:54:00 AM 58.8322 31.0421 126° Southeast  Level FlightAware
Fri 04:55:00 AM 58.7481 31.2639 126° Southeast  Level FlightAware
Fri 04:56:00 AM 58.6636 31.4845 126° Southeast  Level FlightAware
Fri 04:57:00 AM 58.5787 31.7041 127° Southeast  Level FlightAware
Fri 04:58:00 AM 58.4934 31.9226 127° Southeast  Level FlightAware
Fri 04:59:00 AM 58.4077 32.1401 127° Southeast  Level FlightAware
Fri 05:00:00 AM 58.3217 32.3565 127° Southeast  Level FlightAware
Fri 05:01:00 AM 58.2353 32.5719 127° Southeast  Level FlightAware
Fri 05:02:00 AM 58.1486 32.7862 127° Southeast  Level FlightAware
Fri 05:03:00 AM 58.0615 32.9994 128° Southeast  Level FlightAware
Fri 05:04:00 AM 57.9740 33.2117 128° Southeast  Level FlightAware
Fri 05:05:00 AM 57.8862 33.4228 128° Southeast  Level FlightAware
Fri 05:06:00 AM 57.7981 33.6330 128° Southeast  Level FlightAware
Fri 05:07:00 AM 57.7096 33.8421 128° Southeast  Level FlightAware
Fri 05:08:00 AM 57.6207 34.0502 129° Southeast  Level FlightAware
Fri 05:09:00 AM 57.5316 34.2573 129° Southeast  Level FlightAware
Fri 05:10:00 AM 57.4420 34.4634 129° Southeast  Level FlightAware
Fri 05:11:00 AM 57.3472 34.6605 131° Southeast  Level FlightAware
Fri 05:12:00 AM 57.2536 34.8591 131° Southeast  Level FlightAware
Fri 05:13:00 AM 57.1667 35.0673 90° East  Level FlightAware
Fri 05:14:00 AM 57.0784 35.2683 131° Southeast  Level FlightAware
Fri 05:15:00 AM 56.9854 35.4665 129° Southeast  Level FlightAware
Fri 05:16:00 AM 56.8956 35.6692 129° Southeast  Level FlightAware
Fri 05:17:00 AM 56.8056 35.8709 129° Southeast  Level FlightAware
Fri 05:18:00 AM 56.7130 36.0684 131° Southeast  Level FlightAware
Fri 05:19:00 AM 56.6200 36.2646 131° Southeast  Level FlightAware
Fri 05:20:00 AM 56.5266 36.4599 131° Southeast  Level FlightAware
Fri 05:21:00 AM 56.4344 36.6563 130° Southeast  Level FlightAware
Fri 05:22:00 AM 56.3413 36.8511 132° Southeast  Level FlightAware
Fri 05:23:00 AM 56.2459 37.0416 132° Southeast  Level FlightAware
Fri 05:24:00 AM 56.1474 37.2264 134° Southeast  Level FlightAware
Fri 05:25:00 AM 56.0569 37.4229 127° Southeast  Level FlightAware
Fri 05:26:00 AM 55.9726 37.4146 127° Southeast  Level Estimated
Fri 05:27:00 AM 55.9726 37.4146 127° Southeast  Level Estimated
Fri 05:28:00 AM 55.9726 37.4146 127° Southeast  Level Estimated
Fri 05:29:00 AM 55.9726 37.4146 127° Southeast  Level Estimated
Fri 05:30:00 AM 55.9726 37.4146 127° Southeast  Level Estimated
Fri 05:31:00 AM 55.9726 37.4146 127° Southeast  Level Estimated
Fri 05:32:00 AM 55.9726 37.4146 127° Southeast  Level Estimated
Fri 05:33:00 AM 55.9726 37.4146 127° Southeast  Level Estimated
Fri 05:34:00 AM 55.9726 37.4146 127° Southeast  Level Estimated
Fri 05:35:00 AM 55.9726 37.4146 127° Southeast  Level Estimated
Fri 05:36:00 AM 55.9726 37.4146 127° Southeast  Level Estimated
Fri 05:37:00 AM 55.9726 37.4146 127° Southeast  Level Estimated
Fri 05:38:00 AM 55.9726 37.4146 127° Southeast  Level Estimated
Fri 05:39:00 AM 55.9726 37.4146 127° Southeast  Level Estimated

Login

Don't have an account? Register now (free) for customized features, flight alerts, and more!